createdAt,value
2019-05-17T00:00:12.939Z,15.04
2019-05-17T00:03:03.503Z,15.01
2019-05-17T00:05:52.708Z,15.00
2019-05-17T00:08:43.821Z,14.97
2019-05-17T00:11:36.620Z,14.97
2019-05-17T00:14:27.109Z,14.95
2019-05-17T00:17:17.566Z,14.94
2019-05-17T00:20:10.255Z,14.90
2019-05-17T00:23:00.070Z,14.90
2019-05-17T00:25:49.735Z,14.88
2019-05-17T00:28:39.531Z,14.86
2019-05-17T00:31:29.476Z,14.85
2019-05-17T00:34:19.459Z,14.83
2019-05-17T00:37:10.534Z,14.82
2019-05-17T00:40:00.691Z,14.80
2019-05-17T00:42:51.754Z,14.79
2019-05-17T00:45:41.428Z,14.78
2019-05-17T00:48:30.450Z,14.75
2019-05-17T00:51:19.872Z,14.75
2019-05-17T00:54:09.561Z,14.73
2019-05-17T00:56:59.465Z,14.72
2019-05-17T00:59:49.697Z,14.71
2019-05-17T01:02:39.149Z,14.70
2019-05-17T01:05:28.327Z,14.70
2019-05-17T01:08:18.385Z,14.66
2019-05-17T01:11:07.982Z,14.66
2019-05-17T01:13:58.667Z,14.64
2019-05-17T01:16:48.711Z,14.63
2019-05-17T01:19:38.375Z,14.62
2019-05-17T01:22:28.085Z,14.60
2019-05-17T01:25:18.371Z,14.59
2019-05-17T01:28:07.845Z,14.57
2019-05-17T01:30:57.565Z,14.54
2019-05-17T01:33:47.186Z,14.53
2019-05-17T01:36:37.307Z,14.52
2019-05-17T01:39:27.067Z,14.49
2019-05-17T01:42:17.342Z,14.48
2019-05-17T01:45:08.618Z,14.48
2019-05-17T01:47:58.471Z,14.45
2019-05-17T01:50:47.572Z,14.44
2019-05-17T01:53:37.463Z,14.42
2019-05-17T01:56:27.011Z,14.39
2019-05-17T01:59:17.291Z,14.37
2019-05-17T02:02:10.153Z,14.35
2019-05-17T02:05:00.208Z,14.31
2019-05-17T02:07:49.862Z,14.27
2019-05-17T02:10:38.943Z,14.24
2019-05-17T02:13:28.103Z,14.21
2019-05-17T02:16:17.627Z,14.16
2019-05-17T02:19:06.878Z,14.13
2019-05-17T02:21:57.143Z,14.10
2019-05-17T02:24:46.842Z,14.05
2019-05-17T02:27:41.261Z,14.02
2019-05-17T02:30:28.270Z,13.99
2019-05-17T02:33:18.273Z,13.95
2019-05-17T02:36:07.571Z,13.92
2019-05-17T02:38:57.717Z,13.91
2019-05-17T02:41:46.580Z,13.89
2019-05-17T02:44:35.985Z,13.87
2019-05-17T02:47:24.898Z,13.85
2019-05-17T02:50:15.002Z,13.84
2019-05-17T02:53:04.829Z,13.82
2019-05-17T02:55:55.642Z,13.80
2019-05-17T02:58:46.288Z,13.78
2019-05-17T03:01:36.254Z,13.78
2019-05-17T03:04:26.200Z,13.76
2019-05-17T03:07:17.240Z,13.75
2019-05-17T03:10:18.383Z,13.74
2019-05-17T03:12:57.777Z,13.72
2019-05-17T03:15:47.783Z,13.72
2019-05-17T03:18:36.857Z,13.70
2019-05-17T03:21:27.248Z,13.69
2019-05-17T03:24:16.375Z,13.66
2019-05-17T03:27:05.954Z,13.64
2019-05-17T03:29:56.087Z,13.62
2019-05-17T03:32:48.215Z,13.62
2019-05-17T03:35:45.247Z,13.60
2019-05-17T03:38:32.491Z,13.57
2019-05-17T03:41:28.485Z,13.56
2019-05-17T03:44:13.760Z,13.55
2019-05-17T03:47:03.860Z,13.54
2019-05-17T03:49:53.312Z,13.52
2019-05-17T03:52:44.472Z,13.50
2019-05-17T03:55:35.081Z,13.50
2019-05-17T03:58:25.191Z,13.48
2019-05-17T04:01:14.783Z,13.47
2019-05-17T04:04:04.162Z,13.45
2019-05-17T04:06:53.439Z,13.45
2019-05-17T04:09:43.845Z,13.44
2019-05-17T04:12:32.955Z,13.44
2019-05-17T04:15:24.028Z,13.44
2019-05-17T04:18:14.370Z,13.43
2019-05-17T04:21:03.786Z,13.41
2019-05-17T04:23:53.923Z,13.40
2019-05-17T04:26:44.145Z,13.40
2019-05-17T04:29:35.245Z,13.38
2019-05-17T04:32:24.417Z,13.37
2019-05-17T04:35:14.075Z,13.34
2019-05-17T04:38:04.601Z,13.33
2019-05-17T04:40:54.152Z,13.30
2019-05-17T04:43:43.352Z,13.30
2019-05-17T04:46:32.788Z,13.30
2019-05-17T04:49:24.279Z,13.29
2019-05-17T04:52:13.862Z,13.29
2019-05-17T04:55:04.470Z,13.28
2019-05-17T04:57:54.153Z,13.29
2019-05-17T05:00:44.169Z,13.30
2019-05-17T05:03:33.072Z,13.29
2019-05-17T05:06:23.319Z,13.30
2019-05-17T05:09:13.076Z,13.33
2019-05-17T05:12:05.831Z,13.32
2019-05-17T05:14:52.515Z,13.33
2019-05-17T05:17:43.129Z,13.34
2019-05-17T05:20:33.242Z,13.35
2019-05-17T05:23:23.837Z,13.38
2019-05-17T05:26:14.050Z,13.38
2019-05-17T05:29:03.629Z,13.41
2019-05-17T05:31:53.267Z,13.42
2019-05-17T05:34:43.290Z,13.44
2019-05-17T05:37:33.361Z,13.46
2019-05-17T05:40:22.274Z,13.49
2019-05-17T05:43:12.203Z,13.51
2019-05-17T05:46:02.618Z,13.53
2019-05-17T05:48:53.274Z,13.56
2019-05-17T05:51:43.497Z,13.58
2019-05-17T05:54:33.456Z,13.61
2019-05-17T05:57:22.812Z,13.64
2019-05-17T06:00:13.476Z,13.68
2019-05-17T06:03:04.202Z,13.69
2019-05-17T06:05:54.034Z,13.74
2019-05-17T06:08:44.251Z,13.76
2019-05-17T06:11:34.090Z,13.80
2019-05-17T06:14:23.453Z,13.82
2019-05-17T06:17:13.758Z,13.83
2019-05-17T06:20:03.589Z,13.85
2019-05-17T06:22:54.286Z,13.87
2019-05-17T06:25:44.223Z,13.90
2019-05-17T06:28:34.204Z,13.98
2019-05-17T06:31:24.175Z,14.10
2019-05-17T06:34:14.415Z,14.20
2019-05-17T06:37:04.671Z,14.29
2019-05-17T06:39:54.652Z,14.38
2019-05-17T06:42:47.026Z,14.43
2019-05-17T06:45:37.314Z,14.49
2019-05-17T06:48:28.207Z,14.52
2019-05-17T06:51:17.794Z,14.58
2019-05-17T06:54:07.796Z,14.65
2019-05-17T06:56:58.930Z,14.69
2019-05-17T06:59:48.754Z,14.75
2019-05-17T07:02:40.228Z,14.80
2019-05-17T07:05:32.943Z,14.86
2019-05-17T07:08:23.614Z,14.89
2019-05-17T07:11:15.064Z,14.93
2019-05-17T07:14:05.432Z,15.01
2019-05-17T07:16:55.789Z,15.07
2019-05-17T07:19:45.942Z,15.13
2019-05-17T07:22:35.500Z,15.20
2019-05-17T07:25:25.023Z,15.27
2019-05-17T07:28:15.110Z,15.32
2019-05-17T07:31:05.147Z,15.39
2019-05-17T07:33:55.512Z,15.47
2019-05-17T07:36:45.563Z,15.56
2019-05-17T07:39:36.103Z,15.71
2019-05-17T07:42:26.321Z,15.88
2019-05-17T07:45:15.691Z,16.01
2019-05-17T07:48:05.816Z,16.10
2019-05-17T07:50:56.770Z,16.18
2019-05-17T07:53:46.094Z,16.25
2019-05-17T07:56:34.870Z,16.31
2019-05-17T07:59:24.081Z,16.35
2019-05-17T08:02:13.940Z,16.38
2019-05-17T08:05:04.158Z,16.42
2019-05-17T08:07:53.355Z,16.45
2019-05-17T08:10:42.471Z,16.47
2019-05-17T08:13:33.817Z,16.50
2019-05-17T08:16:23.375Z,16.56
2019-05-17T08:19:12.783Z,16.62
2019-05-17T08:22:02.421Z,16.69
2019-05-17T08:24:51.981Z,16.79
2019-05-17T08:27:42.294Z,16.96
2019-05-17T08:30:32.178Z,17.16
2019-05-17T08:33:22.122Z,17.35
2019-05-17T08:36:12.155Z,17.50
2019-05-17T08:39:02.057Z,17.66
2019-05-17T08:41:51.928Z,17.75
2019-05-17T08:44:42.596Z,17.81
2019-05-17T08:47:32.817Z,17.87
2019-05-17T08:50:23.076Z,17.92
2019-05-17T08:53:11.951Z,17.98
2019-05-17T08:56:01.643Z,18.03
2019-05-17T08:58:51.105Z,18.04
2019-05-17T09:01:41.793Z,18.04
2019-05-17T09:04:30.754Z,18.04
2019-05-17T09:07:20.593Z,18.01
2019-05-17T09:10:10.749Z,18.00
2019-05-17T09:13:00.299Z,18.02
2019-05-17T09:15:49.816Z,18.05
2019-05-17T09:18:41.899Z,18.11
2019-05-17T09:21:31.616Z,18.20
2019-05-17T09:24:20.887Z,18.37
2019-05-17T09:27:10.249Z,18.52
2019-05-17T09:30:00.282Z,18.69
2019-05-17T09:32:50.539Z,18.80
2019-05-17T09:35:40.792Z,18.89
2019-05-17T09:38:31.540Z,18.97
2019-05-17T09:41:23.629Z,19.03
2019-05-17T09:44:16.257Z,19.10
2019-05-17T09:47:03.421Z,19.16
2019-05-17T09:49:53.382Z,19.18
2019-05-17T09:52:42.306Z,19.21
2019-05-17T09:55:31.401Z,19.23
2019-05-17T09:58:21.655Z,19.25
2019-05-17T10:01:11.457Z,19.26
2019-05-17T10:04:00.452Z,19.27
2019-05-17T10:06:51.211Z,19.29
2019-05-17T10:09:40.141Z,19.31
2019-05-17T10:12:28.863Z,19.33
2019-05-17T10:15:17.402Z,19.35
2019-05-17T10:18:06.477Z,19.36
2019-05-17T10:20:55.117Z,19.36
2019-05-17T10:23:44.503Z,19.36
2019-05-17T10:26:33.189Z,19.33
2019-05-17T10:29:21.828Z,19.34
2019-05-17T10:32:11.756Z,19.34
2019-05-17T10:35:01.240Z,19.33
2019-05-17T10:37:50.574Z,19.33
2019-05-17T10:40:40.776Z,19.32
2019-05-17T10:43:31.586Z,19.33
2019-05-17T10:46:21.125Z,19.34
2019-05-17T10:49:10.997Z,19.32
2019-05-17T10:52:00.167Z,19.33
2019-05-17T10:54:49.766Z,19.32
2019-05-17T10:57:39.339Z,19.33
2019-05-17T11:00:30.314Z,19.37
2019-05-17T11:03:20.340Z,19.41
2019-05-17T11:06:10.947Z,19.46
2019-05-17T11:08:59.814Z,19.52
2019-05-17T11:11:49.320Z,19.59
2019-05-17T11:14:52.349Z,19.65
2019-05-17T11:17:29.167Z,19.74
2019-05-17T11:20:18.333Z,19.79
2019-05-17T11:23:07.436Z,19.81
2019-05-17T11:25:56.367Z,19.83
2019-05-17T11:28:45.736Z,19.82
2019-05-17T11:31:35.141Z,19.82
2019-05-17T11:34:25.600Z,19.81
2019-05-17T11:37:14.851Z,19.82
2019-05-17T11:40:08.043Z,19.83
2019-05-17T11:42:55.903Z,19.87
2019-05-17T11:45:46.012Z,19.89
2019-05-17T11:48:35.119Z,19.93
2019-05-17T11:51:26.971Z,19.98
2019-05-17T11:54:15.592Z,20.04
2019-05-17T11:57:04.357Z,20.08
2019-05-17T11:59:53.974Z,20.13
2019-05-17T12:02:43.422Z,20.19
2019-05-17T12:05:32.957Z,20.25
2019-05-17T12:08:22.508Z,20.29
2019-05-17T12:11:12.146Z,20.34
2019-05-17T12:14:01.885Z,20.40
2019-05-17T12:16:50.909Z,20.44
2019-05-17T12:19:40.813Z,20.53
2019-05-17T12:22:30.285Z,20.60
2019-05-17T12:25:20.960Z,20.68
2019-05-17T12:28:10.198Z,20.78
2019-05-17T12:30:59.371Z,20.88
2019-05-17T12:33:48.952Z,20.97
2019-05-17T12:36:38.508Z,21.03
2019-05-17T12:39:27.228Z,21.11
2019-05-17T12:42:16.413Z,21.16
2019-05-17T12:45:05.293Z,21.23
2019-05-17T12:47:54.955Z,21.25
2019-05-17T12:50:44.373Z,21.29
2019-05-17T12:53:34.018Z,21.31
2019-05-17T12:56:22.736Z,21.33
2019-05-17T12:59:11.389Z,21.33
2019-05-17T13:02:00.892Z,21.34
2019-05-17T13:04:50.587Z,21.34
2019-05-17T13:07:40.592Z,21.34
2019-05-17T13:10:30.450Z,21.35
2019-05-17T13:13:19.501Z,21.35
2019-05-17T13:16:17.423Z,21.35
2019-05-17T13:18:59.946Z,21.38
2019-05-17T13:21:49.680Z,21.40
2019-05-17T13:24:38.915Z,21.42
2019-05-17T13:27:28.557Z,21.46
2019-05-17T13:30:38.772Z,21.48
2019-05-17T13:33:29.304Z,21.48
2019-05-17T13:36:18.836Z,21.48
2019-05-17T13:39:08.481Z,21.49
2019-05-17T13:41:57.385Z,21.47
2019-05-17T13:44:46.069Z,21.45
2019-05-17T13:47:35.531Z,21.41
2019-05-17T13:50:24.673Z,21.34
2019-05-17T13:53:14.083Z,20.97
2019-05-17T13:56:03.616Z,21.01
2019-05-17T13:58:53.108Z,21.01
2019-05-17T14:01:43.003Z,21.02
2019-05-17T14:04:31.970Z,21.02
2019-05-17T14:07:20.984Z,21.01
2019-05-17T14:10:26.063Z,20.98
2019-05-17T14:13:03.177Z,20.96
2019-05-17T14:15:52.793Z,20.94
2019-05-17T14:18:42.047Z,20.94
2019-05-17T14:21:31.255Z,20.90
2019-05-17T14:24:20.949Z,20.85
2019-05-17T14:27:10.449Z,20.80
2019-05-17T14:30:00.006Z,20.73
2019-05-17T14:32:49.245Z,20.68
2019-05-17T14:35:40.114Z,20.62
2019-05-17T14:38:28.700Z,20.55
2019-05-17T14:41:17.994Z,20.48
2019-05-17T14:44:07.350Z,20.43
2019-05-17T14:46:56.562Z,20.38
2019-05-17T14:49:45.521Z,20.32
2019-05-17T14:52:34.678Z,20.28
2019-05-17T14:55:23.650Z,20.25
2019-05-17T14:58:13.034Z,20.21
2019-05-17T15:01:02.377Z,20.18
2019-05-17T15:03:52.220Z,20.17
2019-05-17T15:06:41.919Z,20.17
2019-05-17T15:09:31.135Z,20.16
2019-05-17T15:12:28.387Z,20.14
2019-05-17T15:15:11.186Z,20.13
2019-05-17T15:17:59.950Z,20.12
2019-05-17T15:20:48.530Z,20.12
2019-05-17T15:23:37.180Z,20.11
2019-05-17T15:26:27.924Z,20.09
2019-05-17T15:29:17.346Z,20.09
2019-05-17T15:32:07.428Z,20.07
2019-05-17T15:34:56.087Z,20.08
2019-05-17T15:37:45.151Z,20.07
2019-05-17T15:40:35.045Z,20.04
2019-05-17T15:43:25.264Z,20.04
2019-05-17T15:46:14.806Z,20.00
2019-05-17T15:49:03.456Z,19.96
2019-05-17T15:51:52.542Z,19.94
2019-05-17T15:54:41.816Z,19.91
2019-05-17T15:57:30.539Z,19.87
2019-05-17T16:00:20.085Z,19.83
2019-05-17T16:03:09.393Z,19.80
2019-05-17T16:05:58.599Z,19.77
2019-05-17T16:08:48.072Z,19.75
2019-05-17T16:11:37.590Z,19.73
2019-05-17T16:14:26.594Z,19.72
2019-05-17T16:17:16.063Z,19.70
2019-05-17T16:20:05.587Z,19.67
2019-05-17T16:22:55.214Z,19.65
2019-05-17T16:25:44.782Z,19.61
2019-05-17T16:28:33.992Z,19.57
2019-05-17T16:31:23.403Z,19.52
2019-05-17T16:34:12.191Z,19.49
2019-05-17T16:37:01.607Z,19.45
2019-05-17T16:39:51.031Z,19.43
2019-05-17T16:42:40.400Z,19.39
2019-05-17T16:45:29.659Z,19.36
2019-05-17T16:48:19.045Z,19.33
2019-05-17T16:51:08.754Z,19.28
2019-05-17T16:54:03.907Z,19.25
2019-05-17T16:56:50.440Z,19.20
2019-05-17T16:59:39.368Z,19.18
2019-05-17T17:02:28.247Z,19.13
2019-05-17T17:05:17.794Z,19.10
2019-05-17T17:08:08.028Z,19.06
2019-05-17T17:10:57.311Z,19.02
2019-05-17T17:13:48.261Z,18.98
2019-05-17T17:16:37.466Z,18.93
2019-05-17T17:23:04.946Z,18.82
2019-05-17T17:25:53.634Z,18.76
2019-05-17T17:28:42.620Z,18.67
2019-05-17T17:31:31.323Z,18.63
2019-05-17T17:34:20.059Z,18.56
2019-05-17T17:37:09.409Z,18.51
2019-05-17T17:39:58.857Z,18.45
2019-05-17T17:42:48.695Z,18.40
2019-05-17T17:45:37.856Z,18.35
2019-05-17T17:48:27.290Z,18.30
2019-05-17T17:51:16.093Z,18.24
2019-05-17T17:54:04.985Z,18.19
2019-05-17T17:56:56.313Z,18.14
2019-05-17T17:59:46.368Z,18.08
2019-05-17T18:02:35.808Z,18.04
2019-05-17T18:05:25.388Z,18.00
2019-05-17T18:08:14.397Z,17.94
2019-05-17T18:11:03.803Z,17.91
2019-05-17T18:13:53.775Z,17.86
2019-05-17T18:16:43.623Z,17.82
2019-05-17T18:19:33.261Z,17.77
2019-05-17T18:22:22.493Z,17.72
2019-05-17T18:25:11.637Z,17.68
2019-05-17T18:28:01.012Z,17.64
2019-05-17T18:30:49.669Z,17.59
2019-05-17T18:33:42.046Z,17.55
2019-05-17T18:36:32.971Z,17.52
2019-05-17T18:39:24.782Z,17.49
2019-05-17T18:42:15.373Z,17.44
2019-05-17T18:45:05.981Z,17.40
2019-05-17T18:47:56.129Z,17.36
2019-05-17T18:50:48.647Z,17.32
2019-05-17T18:53:42.711Z,17.28
2019-05-17T18:56:37.674Z,17.25
2019-05-17T18:59:34.107Z,17.21
2019-05-17T19:02:23.886Z,17.17
2019-05-17T19:05:15.551Z,17.13
2019-05-17T19:08:10.036Z,17.08
2019-05-17T19:11:00.028Z,17.05
2019-05-17T19:13:50.667Z,17.00
2019-05-17T19:16:42.972Z,16.97
2019-05-17T19:19:36.120Z,16.93
2019-05-17T19:22:27.548Z,16.88
2019-05-17T19:25:17.446Z,16.85
2019-05-17T19:28:07.497Z,16.80
2019-05-17T19:30:59.837Z,16.76
2019-05-17T19:33:51.265Z,16.71
2019-05-17T19:36:41.782Z,16.68
2019-05-17T19:39:34.578Z,16.64
2019-05-17T19:42:32.823Z,16.60
2019-05-17T19:45:22.758Z,16.55
2019-05-17T19:48:15.485Z,16.49
2019-05-17T19:51:14.359Z,16.46
2019-05-17T19:54:09.378Z,16.41
2019-05-17T19:56:59.998Z,16.36
2019-05-17T19:59:52.592Z,16.31
2019-05-17T20:02:42.547Z,16.26
2019-05-17T20:05:34.057Z,16.22
2019-05-17T20:08:24.884Z,16.18
2019-05-17T20:11:14.725Z,16.14
2019-05-17T20:14:06.845Z,16.10
2019-05-17T20:16:58.694Z,16.08
2019-05-17T20:19:52.193Z,16.04
2019-05-17T20:22:43.189Z,15.99
2019-05-17T20:25:35.166Z,15.95
2019-05-17T20:28:29.184Z,15.91
2019-05-17T20:31:20.574Z,15.87
2019-05-17T20:34:12.872Z,15.84
2019-05-17T20:37:06.815Z,15.81
2019-05-17T20:39:57.940Z,15.78
2019-05-17T20:42:48.518Z,15.74
2019-05-17T20:45:40.663Z,15.70
2019-05-17T20:48:30.559Z,15.68
2019-05-17T20:51:20.809Z,15.64
2019-05-17T20:54:10.874Z,15.60
2019-05-17T20:57:00.711Z,15.58
2019-05-17T20:59:55.080Z,15.54
2019-05-17T21:02:46.362Z,15.52
2019-05-17T21:05:37.851Z,15.49
2019-05-17T21:08:27.988Z,15.46
2019-05-17T21:11:19.467Z,15.44
2019-05-17T21:14:10.497Z,15.41
2019-05-17T21:20:16.457Z,15.36
2019-05-17T21:23:06.327Z,15.32
2019-05-17T21:25:59.196Z,15.30
2019-05-17T21:28:48.811Z,15.26
2019-05-17T21:31:38.696Z,15.24
2019-05-17T21:34:30.278Z,15.22
2019-05-17T21:37:20.840Z,15.20
2019-05-17T21:40:13.118Z,15.17
2019-05-17T21:43:05.357Z,15.15
2019-05-17T21:46:04.111Z,15.12
2019-05-17T21:48:53.130Z,15.10
2019-05-17T21:51:45.314Z,15.08
2019-05-17T21:54:35.824Z,15.05
2019-05-17T21:57:30.195Z,15.05
2019-05-17T22:01:22.108Z,15.03
2019-05-17T22:04:12.815Z,14.99
2019-05-17T22:07:06.203Z,14.97
2019-05-17T22:09:56.700Z,14.94
2019-05-17T22:12:48.028Z,14.91
2019-05-17T22:15:41.478Z,14.89
2019-05-17T22:18:31.694Z,14.87
2019-05-17T22:21:21.026Z,14.86
2019-05-17T22:24:09.878Z,14.83
2019-05-17T22:26:59.201Z,14.81
2019-05-17T22:29:50.882Z,14.79
2019-05-17T22:32:41.730Z,14.77
2019-05-17T22:35:31.004Z,14.76
2019-05-17T22:38:20.694Z,14.74
2019-05-17T22:41:11.061Z,14.72
2019-05-17T22:44:00.295Z,14.71
2019-05-17T22:46:49.807Z,14.69
2019-05-17T22:49:42.085Z,14.67
2019-05-17T22:52:36.400Z,14.66
2019-05-17T22:55:26.700Z,14.65
2019-05-17T22:58:16.479Z,14.63
2019-05-17T23:01:08.886Z,14.61
2019-05-17T23:03:59.301Z,14.59
2019-05-17T23:06:49.254Z,14.57
2019-05-17T23:09:42.617Z,14.56
2019-05-17T23:12:32.236Z,14.53
2019-05-17T23:15:22.212Z,14.52
2019-05-17T23:18:13.550Z,14.50
2019-05-17T23:21:03.122Z,14.50
2019-05-17T23:23:52.600Z,14.47
2019-05-17T23:26:41.670Z,14.46
2019-05-17T23:29:30.898Z,14.45
2019-05-17T23:32:20.506Z,14.43
2019-05-17T23:35:09.719Z,14.42
2019-05-17T23:37:58.796Z,14.41
2019-05-17T23:40:47.395Z,14.40
2019-05-17T23:43:37.035Z,14.39
2019-05-17T23:46:25.833Z,14.35
2019-05-17T23:49:14.471Z,14.35
2019-05-17T23:52:04.240Z,14.32
2019-05-17T23:54:53.109Z,14.32
2019-05-17T23:57:42.448Z,14.30
